createdAt,value
2023-05-19T00:01:02.389Z,28.56
2023-05-19T00:04:21.102Z,28.61
2023-05-19T00:07:47.800Z,28.69
2023-05-19T00:11:26.604Z,28.74
2023-05-19T00:14:08.854Z,28.69
2023-05-19T00:17:46.816Z,28.59
2023-05-19T00:21:26.372Z,28.27
2023-05-19T00:24:34.634Z,27.91
2023-05-19T00:28:00.267Z,27.80
2023-05-19T00:31:02.321Z,27.76
2023-05-19T00:33:53.432Z,27.70
2023-05-19T00:36:26.940Z,27.66
2023-05-19T00:38:59.407Z,27.62
2023-05-19T00:41:45.971Z,27.51
2023-05-19T00:44:29.663Z,27.41
2023-05-19T00:46:59.747Z,27.28
2023-05-19T00:50:31.855Z,27.16
2023-05-19T00:54:21.371Z,26.94
2023-05-19T00:57:42.309Z,26.71
2023-05-19T01:00:55.490Z,26.49
2023-05-19T01:03:56.066Z,26.38
2023-05-19T01:07:06.202Z,26.28
2023-05-19T01:10:14.873Z,26.16
2023-05-19T01:12:50.383Z,26.01
2023-05-19T01:15:49.100Z,25.93
2023-05-19T01:19:18.737Z,25.83
2023-05-19T01:22:43.046Z,25.70
2023-05-19T01:26:27.370Z,25.50
2023-05-19T01:29:45.296Z,25.30
2023-05-19T01:32:31.783Z,25.18
2023-05-19T01:35:02.344Z,25.00
2023-05-19T01:37:44.862Z,24.83
2023-05-19T01:40:17.730Z,24.72
2023-05-19T01:45:55.874Z,24.54
2023-05-19T01:48:25.179Z,24.41
2023-05-19T01:50:54.492Z,24.31
2023-05-19T01:53:23.993Z,24.20
2023-05-19T02:02:06.217Z,23.79
2023-05-19T02:04:56.721Z,23.67
2023-05-19T02:07:51.844Z,23.58
2023-05-19T02:10:53.081Z,23.45
2023-05-19T02:13:31.433Z,23.32
2023-05-19T02:16:19.025Z,23.21
2023-05-19T02:19:15.835Z,23.13
2023-05-19T02:22:25.066Z,23.03
2023-05-19T02:25:00.795Z,22.96
2023-05-19T02:27:41.853Z,22.90
2023-05-19T02:30:14.738Z,22.84
2023-05-19T02:33:09.878Z,22.76
2023-05-19T02:35:44.719Z,22.69
2023-05-19T02:38:13.279Z,22.62
2023-05-19T02:40:43.798Z,22.56
2023-05-19T02:43:30.392Z,22.51
2023-05-19T02:46:01.903Z,22.43
2023-05-19T02:48:30.664Z,22.36
2023-05-19T02:50:59.172Z,22.29
2023-05-19T02:53:55.042Z,22.21
2023-05-19T02:56:30.451Z,22.13
2023-05-19T02:59:04.839Z,22.06
2023-05-19T03:01:34.244Z,21.99
2023-05-19T03:06:55.158Z,21.85
2023-05-19T03:09:35.703Z,21.78
2023-05-19T03:12:08.089Z,21.70
2023-05-19T03:14:39.855Z,21.64
2023-05-19T03:17:11.724Z,21.58
2023-05-19T03:20:05.381Z,21.52
2023-05-19T03:27:26.165Z,21.33
2023-05-19T03:37:05.184Z,21.02
2023-05-19T03:44:00.960Z,20.86
2023-05-19T03:46:38.249Z,20.79
2023-05-19T03:49:13.154Z,20.72
2023-05-19T03:52:13.077Z,20.65
2023-05-19T03:54:57.488Z,20.57
2023-05-19T03:57:32.342Z,20.50
2023-05-19T04:00:19.325Z,20.44
2023-05-19T04:03:33.662Z,20.36
2023-05-19T04:06:49.318Z,20.25
2023-05-19T04:09:59.392Z,20.12
2023-05-19T04:13:01.610Z,19.99
2023-05-19T04:15:37.231Z,19.88
2023-05-19T04:19:25.217Z,19.78
2023-05-19T04:22:10.239Z,19.65
2023-05-19T04:24:47.041Z,19.56
2023-05-19T04:28:04.566Z,19.48
2023-05-19T04:34:48.862Z,19.18
2023-05-19T04:37:31.111Z,19.09
2023-05-19T05:09:18.804Z,18.33
2023-05-19T05:23:06.194Z,18.17
2023-05-19T05:25:38.102Z,18.04
2023-05-19T05:28:07.271Z,17.93
2023-05-19T05:30:40.051Z,17.82
2023-05-19T05:33:12.751Z,17.72
2023-05-19T05:35:42.455Z,17.61
2023-05-19T05:38:23.704Z,17.51
2023-05-19T05:40:56.119Z,17.41
2023-05-19T05:43:28.147Z,17.31
2023-05-19T05:46:01.363Z,17.24
2023-05-19T05:48:36.664Z,17.14
2023-05-19T05:51:06.816Z,17.06
2023-05-19T06:07:40.472Z,16.95
2023-05-19T06:10:14.256Z,16.88
2023-05-19T06:12:49.621Z,16.79
2023-05-19T06:15:23.118Z,16.68
2023-05-19T06:43:34.899Z,16.33
2023-05-19T06:46:09.432Z,16.24
2023-05-19T06:48:45.892Z,16.15
2023-05-19T07:02:05.472Z,15.91
2023-05-19T07:04:35.229Z,15.79
2023-05-19T07:07:05.056Z,15.71
2023-05-19T08:11:09.833Z,15.13
2023-05-19T08:14:07.030Z,15.01
2023-05-19T08:16:48.154Z,14.90
2023-05-19T08:19:24.197Z,14.77
2023-05-19T08:22:02.787Z,14.67
2023-05-19T08:24:33.947Z,14.56
2023-05-19T08:27:05.898Z,14.48
2023-05-19T08:29:35.418Z,14.39
2023-05-19T08:32:08.753Z,14.30
2023-05-19T08:34:48.546Z,14.22
2023-05-19T08:37:18.153Z,14.14
2023-05-19T08:39:50.402Z,14.05
2023-05-19T08:42:20.453Z,13.97
2023-05-19T08:45:04.669Z,13.89
2023-05-19T08:47:38.923Z,13.80
2023-05-19T08:50:18.957Z,13.73
2023-05-19T08:55:59.937Z,13.57
2023-05-19T08:58:33.345Z,13.52
2023-05-19T09:01:06.971Z,13.49
2023-05-19T09:03:40.298Z,13.49
2023-05-19T09:06:23.868Z,13.48
2023-05-19T09:08:56.344Z,13.46
2023-05-19T09:11:28.702Z,13.43
2023-05-19T09:13:58.036Z,13.40
2023-05-19T09:16:53.368Z,13.35
2023-05-19T09:19:26.574Z,13.31
2023-05-19T09:22:06.802Z,13.24
2023-05-19T09:24:37.210Z,13.20
2023-05-19T09:27:19.717Z,13.15
2023-05-19T09:29:57.186Z,13.11
2023-05-19T09:32:29.897Z,13.06
2023-05-19T09:34:59.904Z,13.04
2023-05-19T09:37:33.285Z,13.01
2023-05-19T09:40:06.726Z,12.94
2023-05-19T09:42:41.066Z,12.91
2023-05-19T09:45:15.969Z,12.89
2023-05-19T09:47:48.148Z,12.88
2023-05-19T09:50:18.249Z,12.86
2023-05-19T09:52:56.993Z,12.82
2023-05-19T09:55:34.242Z,12.81
2023-05-19T09:58:20.437Z,12.78
2023-05-19T10:01:06.052Z,12.77
2023-05-19T10:03:44.672Z,12.74
2023-05-19T10:06:33.787Z,12.71
2023-05-19T10:09:07.027Z,12.67
2023-05-19T10:11:49.317Z,12.65
2023-05-19T10:14:34.925Z,12.61
2023-05-19T10:17:12.833Z,12.57
2023-05-19T10:19:59.359Z,12.54
2023-05-19T10:22:45.644Z,12.50
2023-05-19T10:25:21.629Z,12.48
2023-05-19T10:28:11.505Z,12.45
2023-05-19T10:30:58.172Z,12.40
2023-05-19T10:34:24.550Z,12.38
2023-05-19T10:38:06.730Z,12.35
2023-05-19T10:41:17.617Z,12.31
2023-05-19T10:44:41.344Z,12.28
2023-05-19T10:47:34.706Z,12.27
2023-05-19T10:50:15.408Z,12.23
2023-05-19T10:53:00.736Z,12.22
2023-05-19T10:56:09.108Z,12.21
2023-05-19T10:59:05.998Z,12.20
2023-05-19T11:02:24.452Z,12.16
2023-05-19T11:05:29.459Z,12.13
2023-05-19T11:08:07.278Z,12.10
2023-05-19T11:10:59.753Z,12.08
2023-05-19T11:13:32.140Z,12.05
2023-05-19T11:16:22.876Z,12.06
2023-05-19T11:18:57.917Z,12.05
2023-05-19T11:21:51.824Z,12.04
2023-05-19T11:24:50.880Z,12.03
2023-05-19T11:27:34.742Z,12.03
2023-05-19T11:30:20.408Z,12.03
2023-05-19T11:32:53.004Z,12.04
2023-05-19T11:35:36.268Z,12.06
2023-05-19T11:38:30.537Z,12.06
2023-05-19T11:41:05.467Z,12.05
2023-05-19T11:43:43.832Z,12.04
2023-05-19T11:46:13.448Z,12.06
2023-05-19T11:48:56.083Z,12.06
2023-05-19T11:51:57.536Z,12.09
2023-05-19T11:54:43.854Z,12.12
2023-05-19T11:57:46.980Z,12.15
2023-05-19T12:00:42.646Z,12.18
2023-05-19T12:03:34.051Z,12.18
2023-05-19T12:06:06.909Z,12.20
2023-05-19T12:08:41.085Z,12.21
2023-05-19T12:11:26.153Z,12.23
2023-05-19T12:14:20.798Z,12.24
2023-05-19T12:16:53.079Z,12.24
2023-05-19T12:19:37.391Z,12.24
2023-05-19T12:22:13.105Z,12.23
2023-05-19T12:24:58.656Z,12.22
2023-05-19T12:27:47.298Z,12.21
2023-05-19T12:30:22.744Z,12.21
2023-05-19T12:33:13.822Z,12.19
2023-05-19T12:35:52.214Z,12.18
2023-05-19T12:38:30.897Z,12.16
2023-05-19T12:41:15.728Z,12.15
2023-05-19T12:43:52.080Z,12.16
2023-05-19T12:46:42.330Z,12.16
2023-05-19T12:49:12.141Z,12.17
2023-05-19T12:52:12.632Z,12.18
2023-05-19T12:54:45.652Z,12.19
2023-05-19T12:57:18.007Z,12.19
2023-05-19T12:59:50.426Z,12.20
2023-05-19T13:02:22.050Z,12.21
2023-05-19T13:04:55.385Z,12.21
2023-05-19T13:07:24.612Z,12.20
2023-05-19T13:10:08.160Z,12.20
2023-05-19T13:12:37.739Z,12.21
2023-05-19T13:15:08.509Z,12.23
2023-05-19T13:17:40.934Z,12.24
2023-05-19T13:20:10.894Z,12.26
2023-05-19T13:22:40.056Z,12.28
2023-05-19T13:25:19.339Z,12.31
2023-05-19T13:27:50.804Z,12.33
2023-05-19T13:30:26.807Z,12.36
2023-05-19T13:32:56.900Z,12.38
2023-05-19T13:35:26.352Z,12.41
2023-05-19T13:37:55.630Z,12.44
2023-05-19T13:40:35.838Z,12.47
2023-05-19T13:43:15.525Z,12.50
2023-05-19T13:45:50.917Z,12.52
2023-05-19T13:48:48.817Z,12.54
2023-05-19T13:51:21.780Z,12.55
2023-05-19T13:53:51.435Z,12.57
2023-05-19T13:57:02.190Z,12.60
2023-05-19T14:17:16.224Z,13.24
2023-05-19T14:20:09.833Z,13.31
2023-05-19T14:23:32.992Z,13.37
2023-05-19T14:26:18.021Z,13.42
2023-05-19T14:28:47.981Z,13.43
2023-05-19T14:31:18.331Z,13.45
2023-05-19T14:34:24.299Z,13.47
2023-05-19T14:37:14.717Z,13.50
2023-05-19T14:40:03.512Z,13.52
2023-05-19T14:44:44.752Z,13.59
2023-05-19T14:47:14.073Z,13.64
2023-05-19T14:49:43.346Z,13.68
2023-05-19T14:52:15.638Z,13.72
2023-05-19T15:00:33.736Z,13.83
2023-05-19T15:03:24.342Z,13.90
2023-05-19T15:07:09.883Z,13.97
2023-05-19T15:10:04.058Z,14.04
2023-05-19T15:12:33.438Z,14.11
2023-05-19T15:15:18.210Z,14.19
2023-05-19T15:18:19.842Z,14.26
2023-05-19T15:20:58.419Z,14.32
2023-05-19T15:23:46.972Z,14.39
2023-05-19T15:26:59.124Z,14.45
2023-05-19T15:35:55.336Z,14.64
2023-05-19T15:38:40.750Z,14.73
2023-05-19T15:41:18.626Z,14.81
2023-05-19T15:44:10.580Z,14.90
2023-05-19T15:46:50.706Z,14.97
2023-05-19T15:49:19.505Z,15.03
2023-05-19T15:52:09.678Z,15.10
2023-05-19T15:54:47.107Z,15.18
2023-05-19T15:57:21.531Z,15.27
2023-05-19T16:00:19.518Z,15.38
2023-05-19T16:03:05.602Z,15.51
2023-05-19T16:05:43.242Z,15.72
2023-05-19T16:08:33.374Z,15.94
2023-05-19T16:11:23.140Z,16.11
2023-05-19T16:14:21.649Z,16.19
2023-05-19T16:17:17.200Z,16.32
2023-05-19T16:19:57.050Z,16.48
2023-05-19T16:22:45.629Z,16.67
2023-05-19T16:25:47.505Z,16.85
2023-05-19T16:28:15.808Z,16.99
2023-05-19T16:30:47.679Z,17.12
2023-05-19T16:33:19.333Z,17.25
2023-05-19T16:35:50.912Z,17.35
2023-05-19T16:38:23.862Z,17.49
2023-05-19T16:40:55.309Z,17.62
2023-05-19T16:43:38.879Z,17.70
2023-05-19T16:46:07.474Z,17.80
2023-05-19T16:48:36.084Z,17.89
2023-05-19T16:51:04.586Z,17.95
2023-05-19T16:53:32.946Z,18.07
2023-05-19T16:56:01.392Z,18.16
2023-05-19T16:58:31.107Z,18.27
2023-05-19T17:01:00.045Z,18.37
2023-05-19T17:03:28.718Z,18.45
2023-05-19T17:05:57.274Z,18.54
2023-05-19T17:08:26.014Z,18.70
2023-05-19T17:10:55.164Z,18.86
2023-05-19T17:13:23.751Z,18.95
2023-05-19T17:15:56.514Z,19.06
2023-05-19T17:18:24.894Z,19.14
2023-05-19T17:20:53.211Z,19.21
2023-05-19T17:23:24.145Z,19.31
2023-05-19T17:25:56.182Z,19.37
2023-05-19T17:28:24.970Z,19.43
2023-05-19T17:30:55.343Z,19.54
2023-05-19T17:33:23.802Z,19.56
2023-05-19T17:35:55.675Z,19.61
2023-05-19T17:38:26.068Z,19.72
2023-05-19T17:41:01.626Z,19.84
2023-05-19T17:43:33.061Z,19.91
2023-05-19T17:46:01.684Z,19.97
2023-05-19T17:48:33.106Z,20.06
2023-05-19T17:51:05.099Z,20.17
2023-05-19T17:53:35.338Z,20.20
2023-05-19T17:56:10.758Z,20.26
2023-05-19T17:58:39.861Z,20.33
2023-05-19T18:01:13.363Z,20.45
2023-05-19T18:03:43.821Z,20.55
2023-05-19T18:06:17.701Z,20.71
2023-05-19T18:08:50.933Z,20.82
2023-05-19T18:11:20.205Z,20.89
2023-05-19T18:13:55.597Z,20.95
2023-05-19T18:16:24.542Z,21.00
2023-05-19T18:18:53.185Z,21.03
2023-05-19T18:21:21.808Z,21.08
2023-05-19T18:23:50.684Z,21.15
2023-05-19T18:26:19.150Z,21.21
2023-05-19T18:28:48.041Z,21.26
2023-05-19T18:31:20.113Z,21.34
2023-05-19T18:33:49.043Z,21.40
2023-05-19T18:36:17.890Z,21.43
2023-05-19T18:39:28.563Z,21.50
2023-05-19T18:42:03.817Z,21.58
2023-05-19T18:44:34.273Z,21.65
2023-05-19T18:47:23.521Z,21.73
2023-05-19T18:50:01.308Z,21.80
2023-05-19T18:52:31.708Z,21.86
2023-05-19T18:55:01.632Z,21.92
2023-05-19T18:57:30.127Z,21.97
2023-05-19T19:00:33.797Z,22.01
2023-05-19T19:03:05.681Z,22.03
2023-05-19T19:05:34.478Z,22.07
2023-05-19T19:08:48.556Z,22.14
2023-05-19T19:11:20.035Z,22.24
2023-05-19T19:13:51.564Z,22.30
2023-05-19T19:16:22.957Z,22.36
2023-05-19T19:18:51.613Z,22.43
2023-05-19T19:21:23.179Z,22.47
2023-05-19T19:23:58.437Z,22.54
2023-05-19T19:26:33.429Z,22.63
2023-05-19T19:29:36.318Z,22.67
2023-05-19T19:32:09.004Z,22.72
2023-05-19T19:34:56.658Z,22.81
2023-05-19T19:37:25.118Z,22.88
2023-05-19T19:40:10.609Z,22.91
2023-05-19T19:42:51.782Z,22.95
2023-05-19T19:46:06.513Z,23.00
2023-05-19T19:48:42.689Z,23.04
2023-05-19T19:51:14.386Z,23.07
2023-05-19T19:54:43.142Z,23.13
2023-05-19T19:57:37.629Z,23.25
2023-05-19T20:00:10.424Z,23.31
2023-05-19T20:02:55.710Z,23.35
2023-05-19T20:05:38.407Z,23.43
2023-05-19T20:08:07.103Z,23.46
2023-05-19T20:10:35.940Z,23.51
2023-05-19T20:13:08.026Z,23.56
2023-05-19T20:15:40.594Z,23.62
2023-05-19T20:18:35.243Z,23.69
2023-05-19T20:21:03.843Z,23.77
2023-05-19T20:23:34.973Z,23.85
2023-05-19T20:26:12.483Z,23.91
2023-05-19T20:28:45.166Z,23.96
2023-05-19T20:31:14.234Z,24.04
2023-05-19T20:33:42.568Z,24.10
2023-05-19T20:36:13.907Z,24.19
2023-05-19T20:38:48.193Z,24.29
2023-05-19T20:41:16.864Z,24.39
2023-05-19T20:43:53.920Z,24.47
2023-05-19T20:46:22.467Z,24.59
2023-05-19T20:48:51.273Z,24.69
2023-05-19T20:51:27.478Z,24.82
2023-05-19T20:54:07.853Z,24.94
2023-05-19T20:57:06.772Z,25.03
2023-05-19T20:59:53.691Z,25.16
2023-05-19T21:02:25.201Z,25.33
2023-05-19T21:05:17.582Z,25.49
2023-05-19T21:07:59.923Z,25.70
2023-05-19T21:10:43.527Z,25.92
2023-05-19T21:13:25.770Z,26.16
2023-05-19T21:15:57.740Z,26.36
2023-05-19T21:18:35.512Z,26.51
2023-05-19T21:21:51.636Z,26.68
2023-05-19T21:24:40.744Z,26.88
2023-05-19T21:28:22.141Z,27.06
2023-05-19T21:31:14.748Z,27.27
2023-05-19T21:33:43.824Z,27.49
2023-05-19T21:36:29.604Z,27.61
2023-05-19T21:39:24.327Z,27.75
2023-05-19T21:42:19.309Z,27.88
2023-05-19T21:46:00.914Z,28.00
2023-05-19T21:49:22.197Z,28.16
2023-05-19T21:53:05.442Z,28.35
2023-05-19T21:55:43.176Z,28.52
2023-05-19T21:58:21.404Z,28.67
2023-05-19T22:01:00.902Z,28.84
2023-05-19T22:04:22.992Z,28.97
2023-05-19T22:07:08.095Z,29.15
2023-05-19T22:10:19.108Z,29.25
2023-05-19T22:13:41.202Z,29.34
2023-05-19T22:17:01.487Z,29.47
2023-05-19T22:20:50.664Z,29.60
2023-05-19T22:24:34.473Z,29.80
2023-05-19T22:28:43.722Z,29.92
2023-05-19T22:32:01.521Z,29.82
2023-05-19T22:35:40.530Z,29.89
2023-05-19T22:39:52.743Z,30.06
2023-05-19T22:43:24.438Z,30.15
2023-05-19T22:47:20.550Z,30.05
2023-05-19T22:50:36.037Z,29.72
2023-05-19T22:54:24.830Z,29.70
2023-05-19T22:57:37.790Z,29.49
2023-05-19T23:01:08.830Z,29.54
2023-05-19T23:04:39.235Z,29.49
2023-05-19T23:08:12.393Z,29.58
2023-05-19T23:12:14.623Z,29.78
2023-05-19T23:14:48.744Z,29.93
2023-05-19T23:18:10.696Z,29.97
2023-05-19T23:21:52.583Z,30.14
2023-05-19T23:26:03.764Z,30.19
2023-05-19T23:29:05.365Z,30.19
2023-05-19T23:32:34.714Z,30.29
2023-05-19T23:36:25.459Z,30.40
2023-05-19T23:39:44.687Z,30.50
2023-05-19T23:43:26.088Z,30.60
2023-05-19T23:47:13.141Z,30.60
2023-05-19T23:50:47.123Z,30.64
2023-05-19T23:54:25.229Z,30.79
2023-05-19T23:58:13.287Z,30.95
